createdAt,value
2023-01-04T00:00:01.331Z,94
2023-01-04T00:16:07.796Z,95
2023-01-04T00:31:00.942Z,94
2023-01-04T00:46:00.418Z,95
2023-01-04T01:00:00.303Z,95
2023-01-04T01:16:02.400Z,95
2023-01-04T01:31:08.501Z,95
2023-01-04T01:46:01.989Z,95
2023-01-04T02:00:03.702Z,95
2023-01-04T02:16:00.964Z,96
2023-01-04T02:31:03.157Z,96
2023-01-04T02:46:00.330Z,96
2023-01-04T03:00:02.340Z,96
2023-01-04T03:16:04.656Z,96
2023-01-04T03:31:02.036Z,96
2023-01-04T03:46:03.722Z,96
2023-01-04T04:00:00.881Z,96
2023-01-04T04:16:03.130Z,96
2023-01-04T04:31:00.023Z,96
2023-01-04T04:46:02.130Z,96
2023-01-04T05:00:04.035Z,96
2023-01-04T05:16:02.107Z,96
2023-01-04T05:31:04.161Z,96
2023-01-04T05:46:01.446Z,96
2023-01-04T06:00:03.202Z,96
2023-01-04T06:16:00.366Z,96
2023-01-04T06:31:02.577Z,96
2023-01-04T06:46:00.215Z,96
2023-01-04T07:00:02.182Z,96
2023-01-04T07:16:04.279Z,96
2023-01-04T07:31:01.383Z,96
2023-01-04T07:46:04.723Z,97
2023-01-04T08:00:01.059Z,97
2023-01-04T08:16:03.197Z,97
2023-01-04T08:31:00.507Z,97
2023-01-04T08:46:02.650Z,97
2023-01-04T08:59:59.829Z,97
2023-01-04T09:16:02.386Z,97
2023-01-04T09:31:04.288Z,97
2023-01-04T09:46:01.455Z,97
2023-01-04T10:00:03.508Z,97
2023-01-04T10:16:01.085Z,97
2023-01-04T10:31:38.511Z,97
2023-01-04T10:46:00.412Z,96
2023-01-04T11:00:02.466Z,96
2023-01-04T11:16:00.307Z,94
2023-01-04T11:31:02.383Z,93
2023-01-04T11:46:04.424Z,91
2023-01-04T12:00:01.549Z,89
2023-01-04T12:16:03.791Z,86
2023-01-04T12:31:01.153Z,84
2023-01-04T12:46:03.136Z,82
2023-01-04T13:00:00.237Z,80
2023-01-04T13:16:02.374Z,80
2023-01-04T13:31:04.784Z,79
2023-01-04T13:46:06.314Z,79
2023-01-04T14:00:03.725Z,78
2023-01-04T14:16:01.242Z,76
2023-01-04T14:31:03.162Z,78
2023-01-04T14:46:00.431Z,79
2023-01-04T15:00:02.500Z,80
2023-01-04T15:15:59.879Z,81
2023-01-04T15:31:02.491Z,83
2023-01-04T15:46:05.436Z,84
2023-01-04T16:00:02.025Z,85
2023-01-04T16:16:03.513Z,86
2023-01-04T16:31:01.038Z,87
2023-01-04T16:46:02.893Z,88
2023-01-04T16:59:59.934Z,88
2023-01-04T17:16:02.337Z,88
2023-01-04T17:31:04.528Z,89
2023-01-04T17:46:01.629Z,90
2023-01-04T18:00:03.583Z,90
2023-01-04T18:16:23.250Z,90
2023-01-04T18:31:02.886Z,90
2023-01-04T18:46:00.266Z,90
2023-01-04T19:00:02.143Z,91
2023-01-04T19:16:01.090Z,91
2023-01-04T19:31:01.760Z,91
2023-01-04T19:46:21.101Z,91
2023-01-04T20:00:01.060Z,91
2023-01-04T20:16:03.407Z,92
2023-01-04T20:31:00.588Z,91
2023-01-04T20:46:02.789Z,91
2023-01-04T20:59:59.902Z,91
2023-01-04T21:16:02.210Z,91
2023-01-04T21:31:04.398Z,90
2023-01-04T21:46:01.632Z,90
2023-01-04T22:00:03.661Z,90
2023-01-04T22:16:01.153Z,90
2023-01-04T22:31:03.327Z,90
2023-01-04T22:46:00.481Z,90
2023-01-04T23:00:02.568Z,90
2023-01-04T23:16:04.672Z,90
2023-01-04T23:31:02.237Z,90
2023-01-04T23:46:04.010Z,89
